Time;durP1;ratioP1;P1;durP2;ratioP2;P2;SDS_P1;SDS_P2;PMS_P1;PMS_P2;Temp;Humidity;BMP_temperature;BMP_pressure;BME280_temperature;BME280_humidity;BME280_pressure;Samples;Min_cycle;Max_cycle;Signal;HPM_P1;HPM_P2
2021/12/10 00:00:50;;;;;;;1.40;1.40;;;16.50;67.50;;;;;;5046810;28;44104;-68
2021/12/10 00:03:20;;;;;;;1.10;1.10;;;16.40;67.50;;;;;;5046934;28;43958;-69
2021/12/10 00:05:50;;;;;;;1.20;1.20;;;16.40;67.70;;;;;;5046772;28;43515;-69
2021/12/10 00:08:20;;;;;;;1.30;1.30;;;16.40;67.70;;;;;;5046589;28;44147;-68
2021/12/10 00:10:50;;;;;;;1.30;1.30;;;16.30;67.70;;;;;;5046547;28;43975;-68
2021/12/10 00:13:18;;;;;;;1.30;1.30;;;16.30;67.80;;;;;;5046917;28;43544;-69
2021/12/10 00:15:46;;;;;;;1.30;1.30;;;16.30;67.80;;;;;;5029075;28;44287;-69
2021/12/10 00:18:18;;;;;;;1.17;1.17;;;16.30;67.80;;;;;;5046413;28;44065;-68
2021/12/10 00:20:47;;;;;;;1.30;1.30;;;16.30;67.90;;;;;;5046530;28;44022;-68
2021/12/10 00:23:17;;;;;;;1.30;1.30;;;16.30;68.00;;;;;;5027431;28;44083;-69
2021/12/10 00:25:49;;;;;;;1.20;1.20;;;16.40;67.90;;;;;;5046984;28;43950;-69
2021/12/10 00:28:21;;;;;;;1.10;1.10;;;16.50;67.50;;;;;;5046550;28;44011;-69
2021/12/10 00:31:00;;;;;;;1.30;1.30;;;16.70;67.10;;;;;;5028280;28;45164;-69
2021/12/10 00:33:29;;;;;;;1.40;1.40;;;16.80;66.70;;;;;;5040006;28;43992;-69
2021/12/10 00:35:57;;;;;;;1.33;1.33;;;16.80;66.30;;;;;;5040198;28;43921;-69
2021/12/10 00:38:25;;;;;;;1.13;1.13;;;16.80;66.40;;;;;;5039601;28;45111;-68
2021/12/10 00:40:54;;;;;;;1.30;1.30;;;16.70;66.50;;;;;;5021803;28;45177;-69
2021/12/10 00:43:25;;;;;;;1.10;1.10;;;16.70;66.70;;;;;;5040525;28;44037;-68
2021/12/10 00:45:53;;;;;;;1.07;1.07;;;16.60;66.90;;;;;;5046472;28;43546;-69
2021/12/10 00:48:20;;;;;;;1.17;1.17;;;16.60;67.20;;;;;;5046052;28;44001;-68
2021/12/10 00:50:52;;;;;;;1.20;1.20;;;16.50;67.20;;;;;;5027910;28;45081;-69
2021/12/10 00:53:20;;;;;;;1.30;1.30;;;16.50;67.40;;;;;;5046257;28;43992;-70
2021/12/10 00:55:48;;;;;;;1.27;1.27;;;16.40;67.50;;;;;;5046458;28;44233;-70
2021/12/10 00:58:17;;;;;;;1.13;1.13;;;16.40;67.60;;;;;;5046199;28;43943;-69
2021/12/10 01:00:47;;;;;;;1.10;1.10;;;16.40;67.70;;;;;;5027924;28;45420;-69
2021/12/10 01:03:17;;;;;;;1.20;1.20;;;16.40;67.90;;;;;;5045788;28;44124;-69
2021/12/10 01:05:46;;;;;;;1.27;1.27;;;16.40;67.70;;;;;;5045505;28;44261;-68
2021/12/10 01:08:14;;;;;;;1.30;1.30;;;16.50;67.30;;;;;;5045785;28;43819;-68
2021/12/10 01:10:43;;;;;;;1.07;1.07;;;16.50;67.10;;;;;;5045869;28;43906;-69
2021/12/10 01:13:14;;;;;;;1.00;1.00;;;16.60;67.10;;;;;;5045797;28;43393;-68
2021/12/10 01:15:54;;;;;;;1.10;1.10;;;16.50;67.20;;;;;;5028369;28;43538;-69
2021/12/10 01:23:59;;;;;;;1.43;1.43;;;16.40;67.50;;;;;;5045682;28;44018;-69
2021/12/10 01:26:51;;;;;;;1.40;1.40;;;16.40;67.70;;;;;;5046104;28;44010;-68
2021/12/10 01:29:21;;;;;;;1.10;1.10;;;16.30;67.70;;;;;;5045838;28;44002;-69
2021/12/10 01:31:50;;;;;;;1.20;1.20;;;16.30;67.90;;;;;;5039154;28;43946;-69
2021/12/10 01:34:18;;;;;;;1.20;1.20;;;16.30;67.90;;;;;;5047634;28;43983;-68
2021/12/10 01:36:47;;;;;;;1.20;1.20;;;16.30;68.00;;;;;;5049328;28;43536;-69
2021/12/10 01:39:17;;;;;;;1.30;1.30;;;16.30;68.00;;;;;;5048831;28;44059;-68
2021/12/10 01:41:53;;;;;;;1.20;1.20;;;16.30;68.10;;;;;;5048693;28;44023;-68
2021/12/10 01:44:28;;;;;;;1.03;1.03;;;16.30;68.10;;;;;;5049026;28;43903;-68
2021/12/10 01:46:58;;;;;;;1.10;1.10;;;16.40;67.80;;;;;;5049337;28;43981;-69
2021/12/10 01:49:26;;;;;;;1.27;1.27;;;16.50;67.40;;;;;;5048887;28;43989;-68
2021/12/10 01:51:54;;;;;;;1.00;1.00;;;16.70;67.00;;;;;;5048592;28;43487;-68
2021/12/10 01:54:25;;;;;;;1.00;1.00;;;16.80;66.60;;;;;;5048828;28;44016;-69
2021/12/10 01:56:55;;;;;;;1.23;1.23;;;16.80;67.20;;;;;;5048922;28;43952;-69
2021/12/10 01:59:23;;;;;;;1.20;1.20;;;16.70;66.40;;;;;;5048848;28;44013;-69
2021/12/10 02:01:53;;;;;;;1.10;1.10;;;16.70;66.60;;;;;;5048510;28;44057;-69
2021/12/10 02:04:24;;;;;;;1.20;1.20;;;16.60;67.40;;;;;;5047866;28;44012;-69
2021/12/10 02:06:52;;;;;;;1.10;1.10;;;16.60;67.00;;;;;;5049311;28;43965;-68
2021/12/10 02:09:20;;;;;;;0.93;0.93;;;16.50;67.10;;;;;;5048509;28;43973;-68
2021/12/10 02:11:48;;;;;;;1.30;1.30;;;16.50;67.20;;;;;;5048429;28;44021;-68
2021/12/10 02:14:16;;;;;;;1.30;1.30;;;16.50;67.30;;;;;;5030203;28;43998;-68
2021/12/10 02:16:44;;;;;;;1.20;1.20;;;16.40;67.30;;;;;;5048759;28;44019;-67
2021/12/10 02:19:12;;;;;;;1.00;1.00;;;16.40;67.40;;;;;;5029915;28;45798;-69
2021/12/10 02:21:41;;;;;;;1.03;1.03;;;16.40;67.50;;;;;;5048212;28;44068;-68
2021/12/10 02:24:10;;;;;;;1.20;1.20;;;16.40;67.70;;;;;;5048062;28;44021;-68
2021/12/10 02:26:40;;;;;;;1.10;1.10;;;16.50;67.60;;;;;;5048631;28;44151;-68
2021/12/10 02:29:08;;;;;;;1.30;1.30;;;16.50;67.20;;;;;;5048054;28;45296;-69
2021/12/10 02:31:36;;;;;;;1.33;1.33;;;16.60;67.10;;;;;;5048313;28;44019;-68
2021/12/10 02:34:04;;;;;;;1.10;1.10;;;16.50;66.90;;;;;;5030035;28;43855;-69
2021/12/10 02:36:32;;;;;;;1.00;1.00;;;16.50;67.10;;;;;;5048600;28;43878;-69
2021/12/10 02:39:02;;;;;;;1.00;1.00;;;16.50;67.20;;;;;;5047931;28;44080;-68
2021/12/10 02:41:31;;;;;;;1.10;1.10;;;16.50;67.40;;;;;;5048073;28;43970;-70
2021/12/10 02:43:59;;;;;;;1.10;1.10;;;16.40;67.40;;;;;;5047799;28;43977;-68
2021/12/10 02:46:27;;;;;;;1.00;1.00;;;16.40;67.50;;;;;;5047855;28;43969;-69
2021/12/10 02:48:55;;;;;;;1.07;1.07;;;16.30;67.60;;;;;;5047869;28;43758;-69
2021/12/10 02:51:24;;;;;;;1.10;1.10;;;16.30;67.70;;;;;;5047780;28;44264;-68
2021/12/10 02:53:52;;;;;;;1.10;1.10;;;16.30;67.70;;;;;;5047824;28;43982;-69
2021/12/10 02:56:22;;;;;;;1.17;1.17;;;16.30;67.70;;;;;;5048156;28;43922;-69
2021/12/10 02:58:53;;;;;;;1.10;1.10;;;16.30;67.80;;;;;;5047988;28;43961;-69
2021/12/10 03:01:23;;;;;;;1.10;1.10;;;16.30;67.80;;;;;;5041235;28;43988;-69
2021/12/10 03:03:51;;;;;;;1.37;1.37;;;16.30;68.00;;;;;;5047677;28;43402;-68
2021/12/10 03:06:19;;;;;;;1.10;1.10;;;16.30;67.70;;;;;;5047411;28;43953;-69
2021/12/10 03:08:49;;;;;;;1.10;1.10;;;16.50;67.50;;;;;;5047394;28;44009;-68
2021/12/10 03:11:18;;;;;;;1.10;1.10;;;16.60;67.00;;;;;;5047357;28;44097;-69
2021/12/10 03:13:48;;;;;;;1.07;1.07;;;16.70;66.60;;;;;;5047665;28;43385;-69
2021/12/10 03:16:16;;;;;;;1.00;1.00;;;16.80;66.30;;;;;;5029533;28;44001;-68
2021/12/10 03:18:44;;;;;;;1.10;1.10;;;16.80;66.20;;;;;;5047427;28;43986;-69
2021/12/10 03:21:12;;;;;;;1.20;1.20;;;16.80;66.20;;;;;;5047353;28;43885;-68
2021/12/10 03:23:43;;;;;;;0.97;0.97;;;16.70;66.40;;;;;;5047392;28;43937;-68
2021/12/10 03:26:18;;;;;;;1.17;1.17;;;16.60;66.60;;;;;;5047674;28;44001;-68
2021/12/10 03:28:46;;;;;;;1.10;1.10;;;16.60;67.60;;;;;;5047246;28;43968;-68
2021/12/10 03:31:15;;;;;;;1.00;1.00;;;16.50;67.10;;;;;;5047184;28;43872;-69
2021/12/10 03:33:43;;;;;;;0.90;0.90;;;16.40;67.10;;;;;;5047197;28;44074;-69
2021/12/10 03:36:11;;;;;;;1.17;1.17;;;16.40;67.40;;;;;;5047449;28;43957;-68
2021/12/10 03:38:39;;;;;;;1.07;1.07;;;16.30;67.40;;;;;;5046878;28;43989;-68
2021/12/10 03:41:09;;;;;;;1.00;1.00;;;16.30;67.50;;;;;;5047095;28;44012;-69
2021/12/10 03:43:37;;;;;;;1.03;1.03;;;16.30;67.80;;;;;;5047324;28;43986;-68
2021/12/10 03:46:05;;;;;;;1.00;1.00;;;16.30;67.70;;;;;;5047432;28;44258;-69
2021/12/10 03:48:36;;;;;;;1.07;1.07;;;16.40;67.50;;;;;;5046926;28;43885;-69
2021/12/10 03:51:07;;;;;;;0.90;0.90;;;16.50;67.20;;;;;;5047205;28;44023;-69
2021/12/10 03:53:35;;;;;;;1.00;1.00;;;16.50;67.20;;;;;;5029006;28;44048;-69
2021/12/10 03:56:06;;;;;;;1.00;1.00;;;16.40;67.10;;;;;;5028868;28;43980;-69
2021/12/10 03:58:33;;;;;;;0.83;0.83;;;16.40;67.20;;;;;;5046364;28;44022;-69
2021/12/10 04:01:04;;;;;;;1.00;1.00;;;16.40;67.30;;;;;;5046713;28;43979;-68
2021/12/10 04:03:34;;;;;;;1.17;1.17;;;16.40;67.40;;;;;;5047037;28;44076;-69
2021/12/10 04:06:02;;;;;;;0.90;0.90;;;16.30;67.40;;;;;;5046324;28;43948;-67
2021/12/10 04:08:29;;;;;;;1.03;1.03;;;16.30;67.50;;;;;;5027935;28;47177;-69
2021/12/10 04:10:57;;;;;;;1.10;1.10;;;16.30;67.60;;;;;;5028417;28;44894;-68
2021/12/10 04:13:26;;;;;;;1.07;1.07;;;16.30;67.60;;;;;;5046689;28;44029;-68
2021/12/10 04:15:54;;;;;;;1.20;1.20;;;16.30;67.60;;;;;;5046756;28;44107;-68
2021/12/10 04:18:24;;;;;;;1.10;1.10;;;16.30;67.60;;;;;;5046374;28;45202;-69
2021/12/10 04:20:53;;;;;;;1.00;1.00;;;16.30;67.60;;;;;;5046322;28;43395;-69
2021/12/10 04:23:22;;;;;;;1.00;1.00;;;16.30;67.70;;;;;;5046494;28;44043;-69
2021/12/10 04:25:50;;;;;;;1.20;1.20;;;16.30;67.60;;;;;;5046700;28;44007;-69
2021/12/10 04:28:19;;;;;;;1.20;1.20;;;16.50;67.40;;;;;;5046369;28;43998;-69
2021/12/10 04:30:48;;;;;;;1.20;1.20;;;16.60;66.90;;;;;;5046313;28;44018;-68
2021/12/10 04:33:18;;;;;;;0.97;0.97;;;16.80;66.50;;;;;;5028328;28;43979;-68
2021/12/10 04:35:46;;;;;;;1.17;1.17;;;16.80;66.10;;;;;;5046667;28;44165;-68
2021/12/10 04:38:16;;;;;;;1.13;1.13;;;16.80;66.00;;;;;;5046287;28;44083;-68
2021/12/10 04:40:46;;;;;;;1.03;1.03;;;16.70;66.00;;;;;;5046088;28;43965;-68
2021/12/10 04:43:14;;;;;;;0.90;0.90;;;16.70;66.30;;;;;;5039938;28;43868;-69
2021/12/10 04:45:42;;;;;;;1.00;1.00;;;16.60;66.50;;;;;;5040092;28;43768;-67
2021/12/10 04:48:10;;;;;;;1.20;1.20;;;16.60;66.70;;;;;;5039617;28;43949;-70
2021/12/10 04:50:38;;;;;;;1.33;1.33;;;16.50;66.80;;;;;;5039877;28;43981;-68
2021/12/10 04:53:07;;;;;;;1.50;1.47;;;16.50;67.70;;;;;;5039750;28;44083;-69
2021/12/10 04:55:36;;;;;;;4.07;1.93;;;16.40;67.00;;;;;;5039812;28;43957;-69
2021/12/10 04:58:04;;;;;;;3.37;2.10;;;16.40;67.10;;;;;;5046010;28;43604;-68
2021/12/10 05:00:34;;;;;;;3.03;2.20;;;16.40;67.30;;;;;;5046046;28;43885;-68
2021/12/10 05:03:04;;;;;;;2.57;2.20;;;16.40;67.40;;;;;;5045832;28;44082;-68
2021/12/10 05:05:32;;;;;;;5.30;2.67;;;16.40;67.60;;;;;;5045469;28;43953;-69
2021/12/10 05:08:00;;;;;;;2.90;2.53;;;16.40;67.40;;;;;;5045947;28;43927;-69
2021/12/10 05:10:28;;;;;;;3.03;2.80;;;16.50;67.00;;;;;;5049473;28;43981;-68
2021/12/10 05:12:58;;;;;;;3.60;2.70;;;16.50;66.80;;;;;;5049616;28;44020;-69
2021/12/10 05:15:27;;;;;;;4.00;2.73;;;16.50;66.80;;;;;;5049616;28;44195;-69
2021/12/10 05:17:55;;;;;;;3.53;2.90;;;16.50;66.90;;;;;;5049182;28;43928;-69
2021/12/10 05:20:26;;;;;;;3.87;2.60;;;16.40;67.80;;;;;;5031234;28;44971;-69
2021/12/10 05:22:54;;;;;;;6.13;3.33;;;16.40;67.20;;;;;;5049369;28;43432;-70
2021/12/10 05:25:22;;;;;;;4.40;2.57;;;16.30;67.30;;;;;;5049420;28;44004;-69
2021/12/10 05:27:50;;;;;;;4.70;3.27;;;16.30;67.40;;;;;;5049085;28;43947;-69
2021/12/10 05:30:20;;;;;;;4.10;3.00;;;16.30;67.40;;;;;;5049204;28;44079;-69
2021/12/10 05:32:48;;;;;;;4.10;2.63;;;16.30;67.50;;;;;;5049249;28;44079;-69
2021/12/10 05:35:16;;;;;;;3.83;3.00;;;16.30;67.60;;;;;;5049338;28;43969;-69
2021/12/10 05:37:44;;;;;;;3.50;3.13;;;16.30;67.70;;;;;;5048828;28;44066;-69
2021/12/10 05:40:13;;;;;;;3.60;2.60;;;16.30;67.70;;;;;;5048988;28;43919;-69
2021/12/10 05:42:42;;;;;;;4.90;2.90;;;16.30;67.70;;;;;;5049059;28;43453;-69
2021/12/10 05:45:11;;;;;;;4.53;2.93;;;16.30;67.90;;;;;;5049044;28;43995;-69
2021/12/10 05:47:40;;;;;;;2.63;2.43;;;16.30;67.60;;;;;;5048763;28;44038;-69
2021/12/10 05:50:09;;;;;;;2.87;2.57;;;16.50;67.30;;;;;;5048653;28;44013;-69
2021/12/10 05:52:37;;;;;;;2.93;2.63;;;16.70;66.90;;;;;;5030805;28;43978;-69
2021/12/10 05:55:06;;;;;;;4.43;3.13;;;16.70;66.40;;;;;;5049250;28;43889;-68
2021/12/10 05:57:34;;;;;;;4.27;3.13;;;16.80;66.20;;;;;;5048621;28;43979;-69
2021/12/10 06:00:02;;;;;;;3.77;2.70;;;16.70;66.10;;;;;;5048584;28;44004;-69
2021/12/10 06:02:36;;;;;;;2.83;2.30;;;16.70;66.30;;;;;;5045907;28;44056;-70
2021/12/10 06:05:07;;;;;;;3.50;2.60;;;16.60;66.40;;;;;;5048415;28;43473;-69
2021/12/10 06:07:38;;;;;;;2.90;2.70;;;16.60;66.60;;;;;;5048791;28;44088;-69
2021/12/10 06:10:07;;;;;;;2.90;2.70;;;16.50;66.80;;;;;;5048541;28;43894;-68
2021/12/10 06:12:35;;;;;;;2.80;2.50;;;16.50;66.90;;;;;;5048718;28;44056;-69
2021/12/10 06:15:04;;;;;;;3.10;2.57;;;16.40;67.00;;;;;;5030507;28;43699;-68
2021/12/10 06:17:32;;;;;;;3.10;2.67;;;16.40;67.20;;;;;;5048270;28;43975;-69
2021/12/10 06:20:00;;;;;;;3.20;2.77;;;16.30;67.20;;;;;;5047124;28;44060;-68
2021/12/10 06:22:29;;;;;;;4.00;2.90;;;16.30;67.30;;;;;;5048273;28;43912;-69
2021/12/10 06:24:57;;;;;;;2.90;2.43;;;16.30;67.60;;;;;;5048532;28;43870;-69
2021/12/10 06:27:25;;;;;;;5.43;2.57;;;16.30;67.50;;;;;;5029952;28;47435;-69
2021/12/10 06:29:52;;;;;;;2.83;2.60;;;16.40;67.30;;;;;;5048213;28;44020;-69
2021/12/10 06:32:20;;;;;;;3.40;2.57;;;16.50;67.00;;;;;;5048168;28;44039;-69
2021/12/10 06:34:48;;;;;;;2.87;2.50;;;16.50;66.90;;;;;;5048298;28;44081;-69
2021/12/10 06:37:16;;;;;;;2.83;2.47;;;16.40;66.90;;;;;;5048019;28;44107;-69
2021/12/10 06:39:45;;;;;;;2.80;2.60;;;16.40;67.00;;;;;;5029762;28;43432;-69
2021/12/10 06:42:13;;;;;;;2.70;2.50;;;16.40;67.20;;;;;;5048076;28;44012;-68
2021/12/10 06:45:01;;;;;;;2.33;2.13;;;16.30;67.20;;;;;;5048467;28;43945;-69
2021/12/10 06:47:29;;;;;;;2.50;2.27;;;16.30;67.40;;;;;;5047801;28;43922;-69
2021/12/10 06:49:57;;;;;;;2.77;2.57;;;16.30;67.50;;;;;;5047765;28;43982;-69
2021/12/10 06:52:25;;;;;;;2.60;2.40;;;16.30;67.60;;;;;;5029750;28;43405;-70
2021/12/10 06:54:55;;;;;;;2.43;2.33;;;16.30;67.60;;;;;;5047895;28;44223;-69
2021/12/10 06:57:23;;;;;;;3.20;2.63;;;16.30;67.70;;;;;;5029452;28;46133;-69
2021/12/10 06:59:52;;;;;;;2.63;2.43;;;16.30;67.70;;;;;;5047955;28;44472;-70
2021/12/10 07:02:20;;;;;;;2.50;2.40;;;16.20;67.50;;;;;;5047653;28;44030;-69
2021/12/10 07:04:48;;;;;;;2.70;2.30;;;16.20;67.70;;;;;;5047389;28;43577;-70
2021/12/10 07:07:16;;;;;;;2.60;2.40;;;16.30;67.70;;;;;;5047356;28;44021;-69
2021/12/10 07:09:44;;;;;;;2.97;2.70;;;16.40;67.50;;;;;;5047503;28;43342;-69
2021/12/10 07:12:13;;;;;;;2.47;2.37;;;16.50;67.10;;;;;;5047957;28;43967;-68
2021/12/10 07:14:43;;;;;;;2.47;2.37;;;16.60;66.60;;;;;;5047652;28;44029;-69
2021/12/10 07:17:11;;;;;;;2.77;2.57;;;16.70;66.30;;;;;;5028835;28;45409;-69
2021/12/10 07:19:40;;;;;;;3.50;2.80;;;16.70;66.10;;;;;;5047269;28;44011;-70
2021/12/10 07:22:08;;;;;;;2.40;2.23;;;16.70;66.10;;;;;;5047183;28;44034;-69
2021/12/10 07:24:36;;;;;;;2.50;2.40;;;16.60;66.30;;;;;;5047377;28;43934;-69
2021/12/10 07:27:08;;;;;;;1.90;1.90;;;16.60;66.50;;;;;;5046848;28;43966;-69
2021/12/10 07:29:37;;;;;;;2.33;2.13;;;16.50;66.70;;;;;;5047148;28;43910;-69
2021/12/10 07:32:06;;;;;;;2.37;2.27;;;16.50;66.80;;;;;;5046709;28;44019;-69
2021/12/10 07:34:34;;;;;;;2.73;2.47;;;16.40;66.90;;;;;;5047229;28;44072;-68
2021/12/10 07:37:01;;;;;;;2.10;2.00;;;16.40;67.00;;;;;;5046811;28;43956;-69
2021/12/10 07:39:30;;;;;;;2.07;1.97;;;16.40;67.20;;;;;;5046735;28;43910;-70
2021/12/10 07:42:00;;;;;;;2.27;2.17;;;16.40;67.30;;;;;;5028711;28;43481;-69
2021/12/10 07:44:28;;;;;;;2.40;2.20;;;16.30;67.30;;;;;;5028977;28;43912;-68
2021/12/10 07:46:58;;;;;;;2.70;2.50;;;16.30;68.20;;;;;;5046731;28;44807;-69
2021/12/10 07:49:29;;;;;;;2.20;2.10;;;16.40;67.40;;;;;;5046707;28;43887;-69
2021/12/10 07:51:57;;;;;;;2.23;2.13;;;16.50;67.10;;;;;;5047082;28;43969;-69
2021/12/10 07:54:25;;;;;;;2.10;2.00;;;16.50;66.90;;;;;;5046901;28;44013;-69
2021/12/10 07:56:53;;;;;;;2.33;2.23;;;16.50;66.90;;;;;;5046293;28;43968;-70
2021/12/10 07:59:21;;;;;;;2.40;2.20;;;16.40;66.90;;;;;;5046486;28;43981;-69
2021/12/10 08:01:49;;;;;;;2.33;2.20;;;16.40;67.00;;;;;;5046577;28;43979;-71
2021/12/10 08:04:19;;;;;;;2.30;2.20;;;16.30;67.10;;;;;;5046076;28;43853;-69
2021/12/10 08:06:47;;;;;;;1.93;1.83;;;16.30;67.30;;;;;;5046364;28;44052;-69
2021/12/10 08:09:15;;;;;;;2.00;1.90;;;16.30;67.40;;;;;;5046247;28;43972;-70
2021/12/10 08:11:43;;;;;;;2.10;2.00;;;16.30;67.40;;;;;;5046538;28;43417;-68
2021/12/10 08:14:11;;;;;;;2.20;2.00;;;16.30;67.60;;;;;;5047219;28;43686;-69
2021/12/10 08:16:39;;;;;;;1.80;1.70;;;16.20;67.50;;;;;;5046425;28;45178;-69
2021/12/10 08:19:07;;;;;;;2.20;2.10;;;16.20;67.50;;;;;;5046527;28;44904;-69
2021/12/10 08:21:37;;;;;;;2.00;1.90;;;16.20;67.50;;;;;;5046406;28;43842;-69
2021/12/10 08:24:05;;;;;;;2.23;2.10;;;16.20;67.60;;;;;;5046500;28;43929;-69
2021/12/10 08:26:33;;;;;;;2.10;1.90;;;16.30;67.80;;;;;;5046001;28;43978;-69
2021/12/10 08:29:01;;;;;;;2.00;1.90;;;16.30;67.70;;;;;;5046006;28;43817;-70
2021/12/10 08:31:29;;;;;;;2.07;1.97;;;16.40;67.30;;;;;;5028119;28;43968;-69
2021/12/10 08:33:57;;;;;;;2.20;2.10;;;16.60;67.00;;;;;;5046506;28;43985;-69
2021/12/10 08:36:27;;;;;;;2.07;1.70;;;16.70;66.60;;;;;;5045749;28;45091;-69
2021/12/10 08:38:56;;;;;;;2.40;2.20;;;16.70;66.20;;;;;;5027719;28;45206;-69
2021/12/10 08:41:25;;;;;;;1.87;1.77;;;16.70;66.10;;;;;;5046030;28;43977;-69
2021/12/10 08:43:54;;;;;;;2.00;1.90;;;16.60;66.20;;;;;;5048080;28;44258;-70
2021/12/10 08:46:22;;;;;;;1.70;1.70;;;16.60;66.50;;;;;;5031171;28;45873;-70
2021/12/10 08:48:50;;;;;;;2.10;2.00;;;16.50;66.60;;;;;;5049201;28;43849;-70
2021/12/10 08:51:22;;;;;;;1.83;1.83;;;16.50;66.80;;;;;;5049502;28;43701;-69
2021/12/10 08:53:50;;;;;;;1.90;1.80;;;16.50;67.00;;;;;;5050032;28;43814;-69
2021/12/10 08:56:22;;;;;;;2.00;1.90;;;16.40;67.00;;;;;;5049120;28;44158;-69
2021/12/10 08:58:50;;;;;;;1.80;1.80;;;16.30;67.10;;;;;;5049371;28;43939;-70
2021/12/10 09:01:19;;;;;;;2.10;2.00;;;16.30;67.20;;;;;;5049560;28;43958;-69
2021/12/10 09:03:49;;;;;;;2.03;1.93;;;16.30;67.30;;;;;;5042841;28;44262;-70
2021/12/10 09:06:17;;;;;;;1.97;1.87;;;16.30;67.40;;;;;;5042515;28;43929;-69
2021/12/10 09:08:45;;;;;;;1.97;1.90;;;16.40;67.50;;;;;;5042557;28;43425;-69
2021/12/10 09:11:13;;;;;;;1.77;1.77;;;16.40;67.10;;;;;;5043088;28;43893;-69
2021/12/10 09:13:43;;;;;;;2.00;1.90;;;16.50;66.90;;;;;;5043607;28;44207;-69
2021/12/10 09:16:18;;;;;;;1.93;1.83;;;16.50;66.90;;;;;;5049053;28;44092;-69
2021/12/10 09:18:46;;;;;;;1.77;1.67;;;16.50;66.90;;;;;;5030921;28;44125;-68
2021/12/10 09:21:14;;;;;;;2.00;1.90;;;16.40;66.90;;;;;;5049027;28;43365;-70
2021/12/10 09:23:42;;;;;;;1.70;1.70;;;16.40;67.00;;;;;;5049559;28;44132;-69
2021/12/10 09:26:11;;;;;;;1.93;1.83;;;16.30;67.10;;;;;;5048901;28;44854;-69
2021/12/10 09:28:40;;;;;;;1.40;1.40;;;16.40;67.30;;;;;;5030835;28;46406;-69
2021/12/10 09:31:11;;;;;;;2.00;1.90;;;16.30;67.30;;;;;;5048953;28;44036;-69
2021/12/10 09:33:39;;;;;;;1.70;1.60;;;16.30;67.40;;;;;;5031412;28;44150;-69
2021/12/10 09:36:07;;;;;;;1.87;1.77;;;16.30;67.40;;;;;;5048629;28;45043;-69
2021/12/10 09:38:35;;;;;;;1.50;1.50;;;16.30;67.50;;;;;;5048782;28;44538;-69
2021/12/10 09:41:05;;;;;;;1.60;1.60;;;16.20;67.40;;;;;;5048822;28;44019;-69
2021/12/10 09:43:33;;;;;;;1.80;1.70;;;16.30;67.60;;;;;;5030897;28;43623;-70
2021/12/10 09:46:01;;;;;;;2.13;1.93;;;16.20;67.60;;;;;;5048415;28;43967;-69
2021/12/10 09:48:30;;;;;;;1.60;1.60;;;16.30;67.70;;;;;;5048547;28;44121;-69
2021/12/10 09:51:01;;;;;;;2.00;1.90;;;16.40;67.40;;;;;;5048518;28;44041;-70
2021/12/10 09:53:29;;;;;;;1.80;1.80;;;16.50;67.00;;;;;;5048873;28;43945;-70
2021/12/10 09:55:57;;;;;;;1.60;1.60;;;16.60;66.50;;;;;;5048085;28;43938;-69
2021/12/10 09:58:25;;;;;;;1.73;1.73;;;16.70;66.20;;;;;;5030354;28;44763;-70
2021/12/10 10:00:55;;;;;;;1.80;1.80;;;16.70;66.10;;;;;;5048492;28;43977;-69
2021/12/10 10:03:24;;;;;;;1.47;1.47;;;16.60;66.20;;;;;;5048778;28;43951;-69
2021/12/10 10:05:54;;;;;;;1.50;1.50;;;16.60;66.40;;;;;;5047339;28;44008;-69
2021/12/10 10:08:24;;;;;;;1.70;1.70;;;16.50;66.60;;;;;;5047927;28;43922;-69
2021/12/10 10:10:55;;;;;;;1.60;1.60;;;16.50;66.80;;;;;;5030257;28;43392;-69
2021/12/10 10:13:25;;;;;;;1.50;1.50;;;16.40;66.90;;;;;;5030412;28;43980;-69
2021/12/10 10:15:57;;;;;;;1.50;1.50;;;16.40;67.10;;;;;;5047997;28;45173;-69
2021/12/10 10:18:25;;;;;;;1.50;1.50;;;16.30;67.10;;;;;;5048264;28;43465;-70
2021/12/10 10:20:56;;;;;;;1.50;1.50;;;16.30;67.20;;;;;;5048263;28;43453;-69
2021/12/10 10:23:24;;;;;;;1.40;1.40;;;16.30;67.30;;;;;;5049193;28;44036;-69
2021/12/10 10:25:53;;;;;;;1.50;1.50;;;16.30;67.40;;;;;;5047819;28;44041;-69
2021/12/10 10:28:22;;;;;;;1.53;1.53;;;16.30;67.60;;;;;;5029558;28;45781;-69
2021/12/10 10:30:57;;;;;;;1.60;1.60;;;16.30;67.50;;;;;;5047882;28;43930;-69
2021/12/10 10:33:25;;;;;;;1.67;1.67;;;16.40;67.10;;;;;;5048433;28;44021;-69
2021/12/10 10:35:57;;;;;;;1.60;1.60;;;16.50;66.90;;;;;;5047495;28;43930;-69
2021/12/10 10:38:25;;;;;;;1.53;1.50;;;16.40;66.80;;;;;;5047765;28;43452;-70
2021/12/10 10:40:55;;;;;;;1.43;1.43;;;16.40;66.90;;;;;;5029579;28;44118;-69
2021/12/10 10:43:23;;;;;;;1.70;1.70;;;16.40;67.10;;;;;;5048097;28;43901;-70
2021/12/10 10:45:51;;;;;;;1.50;1.50;;;16.30;67.10;;;;;;5047377;28;44002;-69
2021/12/10 10:48:19;;;;;;;1.50;1.50;;;16.30;67.20;;;;;;5047520;28;43439;-68
2021/12/10 10:50:50;;;;;;;1.53;1.53;;;16.30;67.40;;;;;;5047640;28;43998;-70
2021/12/10 10:53:21;;;;;;;1.30;1.30;;;16.30;67.40;;;;;;5048028;28;43875;-68
2021/12/10 10:55:52;;;;;;;1.37;1.37;;;16.30;67.50;;;;;;5047650;28;43930;-68
2021/12/10 10:58:21;;;;;;;1.37;1.37;;;16.20;67.50;;;;;;5047593;28;43954;-70
2021/12/10 11:00:58;;;;;;;1.40;1.40;;;16.20;67.50;;;;;;5047385;28;43889;-69
2021/12/10 11:03:45;;;;;;;1.50;1.40;;;16.20;67.50;;;;;;5048170;28;43826;-69
2021/12/10 11:06:15;;;;;;;1.43;1.43;;;16.20;67.60;;;;;;5046659;28;44035;-69
2021/12/10 11:08:46;;;;;;;1.57;1.57;;;16.20;67.80;;;;;;5040943;28;44028;-70
2021/12/10 11:11:16;;;;;;;1.43;1.43;;;16.30;67.80;;;;;;5041859;28;44019;-70
2021/12/10 11:13:45;;;;;;;1.50;1.40;;;16.40;67.60;;;;;;5047863;28;44245;-69
2021/12/10 11:16:18;;;;;;;1.30;1.30;;;16.50;67.10;;;;;;5047357;28;44045;-69
2021/12/10 11:18:49;;;;;;;1.30;1.30;;;16.60;66.70;;;;;;5047197;28;43498;-69
2021/12/10 11:21:18;;;;;;;1.47;1.47;;;16.70;66.30;;;;;;5047491;28;43985;-69
2021/12/10 11:23:47;;;;;;;1.80;1.70;;;16.70;66.10;;;;;;5047402;28;43967;-69
2021/12/10 11:26:15;;;;;;;1.30;1.30;;;16.70;66.20;;;;;;5028971;28;44233;-71
2021/12/10 11:28:43;;;;;;;1.30;1.30;;;16.60;66.40;;;;;;5047000;28;44111;-69
2021/12/10 11:31:13;;;;;;;1.40;1.40;;;16.50;66.60;;;;;;5047260;28;43452;-70
2021/12/10 11:33:44;;;;;;;1.40;1.40;;;16.50;66.80;;;;;;5047478;28;43396;-69
2021/12/10 11:36:14;;;;;;;1.40;1.40;;;16.40;67.00;;;;;;5046947;28;44120;-69
2021/12/10 11:38:44;;;;;;;1.20;1.20;;;16.30;67.00;;;;;;5028919;28;45174;-69
2021/12/10 11:41:14;;;;;;;1.30;1.30;;;16.30;67.20;;;;;;5047102;28;43937;-68
2021/12/10 11:43:52;;;;;;;1.20;1.20;;;16.30;67.30;;;;;;5047471;28;44207;-70
2021/12/10 11:46:43;;;;;;;1.43;1.43;;;16.30;67.40;;;;;;5028587;28;46068;-69
2021/12/10 11:49:15;;;;;;;1.10;1.10;;;16.30;67.50;;;;;;5046956;28;43447;-69
2021/12/10 11:51:44;;;;;;;1.40;1.40;;;16.30;67.70;;;;;;5047225;28;44028;-69
2021/12/10 11:54:27;;;;;;;1.40;1.40;;;16.30;67.30;;;;;;5047098;28;44012;-69
2021/12/10 11:56:59;;;;;;;1.33;1.33;;;16.40;67.00;;;;;;5046626;28;44987;-69
2021/12/10 11:59:28;;;;;;;1.40;1.40;;;16.40;66.90;;;;;;5046764;28;43431;-70
2021/12/10 12:01:58;;;;;;;1.30;1.30;;;16.40;67.00;;;;;;5028374;28;43849;-69
2021/12/10 12:04:29;;;;;;;1.20;1.20;;;16.40;67.10;;;;;;5028326;28;44068;-69
2021/12/10 12:07:33;;;;;;;1.10;1.10;;;16.40;67.20;;;;;;5046453;28;43968;-70
2021/12/10 12:10:07;;;;;;;1.03;1.03;;;16.30;67.30;;;;;;5046418;28;43965;-69
2021/12/10 12:12:40;;;;;;;1.10;1.10;;;16.30;67.40;;;;;;5046631;28;44037;-69
2021/12/10 12:15:13;;;;;;;1.40;1.40;;;16.30;67.50;;;;;;5046948;28;44013;-70
2021/12/10 12:17:43;;;;;;;1.10;1.10;;;16.20;67.50;;;;;;5045647;28;44950;-68
2021/12/10 12:20:32;;;;;;;1.33;1.33;;;16.20;67.50;;;;;;5039622;28;43960;-69
2021/12/10 12:25:50;;;;;;;1.10;1.10;;;16.20;67.50;;;;;;5046428;28;43868;-69
2021/12/10 12:28:30;;;;;;;1.40;1.40;;;16.20;67.60;;;;;;5046180;28;43985;-70
2021/12/10 12:31:20;;;;;;;1.10;1.10;;;16.20;67.70;;;;;;5046187;28;44011;-70
2021/12/10 12:33:57;;;;;;;1.00;1.00;;;16.30;67.40;;;;;;5046099;28;43397;-69
2021/12/10 12:36:31;;;;;;;1.03;1.03;;;16.50;67.20;;;;;;5046401;28;44024;-70
2021/12/10 12:38:59;;;;;;;7.17;1.40;;;16.60;66.70;;;;;;5045816;28;43966;-69
2021/12/10 12:41:35;;;;;;;3.50;1.40;;;16.70;66.40;;;;;;5046142;28;43421;-69
2021/12/10 12:44:20;;;;;;;1.30;1.30;;;16.70;66.00;;;;;;5018771;28;44050;-69
2021/12/10 12:47:12;;;;;;;1.33;1.00;;;16.60;66.10;;;;;;5046306;28;44014;-69
2021/12/10 12:49:58;;;;;;;1.27;1.27;;;16.60;66.50;;;;;;5045997;28;44044;-69
2021/12/10 12:52:29;;;;;;;1.53;1.40;;;16.50;66.60;;;;;;5045886;28;44024;-69
2021/12/10 12:55:16;;;;;;;1.10;1.10;;;16.40;66.70;;;;;;5046090;28;43388;-69
2021/12/10 12:57:45;;;;;;;3.30;1.20;;;16.40;67.00;;;;;;5046418;28;43755;-69
2021/12/10 13:00:37;;;;;;;2.77;1.20;;;16.30;67.00;;;;;;5045768;28;44709;-70
2021/12/10 13:03:08;;;;;;;1.20;1.20;;;16.30;67.20;;;;;;5045629;28;43990;-69
2021/12/10 13:05:42;;;;;;;1.00;1.00;;;16.30;67.30;;;;;;5045861;28;43487;-69
2021/12/10 13:08:14;;;;;;;1.50;1.40;;;16.30;67.40;;;;;;5046379;28;43390;-69
2021/12/10 13:11:06;;;;;;;1.53;1.40;;;16.20;67.50;;;;;;5027283;28;46703;-70